sensor_id;sensor_type;location;lat;lon;timestamp;temperature;humidity
27567;DHT22;15006;48.584;9.186;2023-03-19T00:02:28;5.70;74.30
27567;DHT22;15006;48.584;9.186;2023-03-19T00:04:59;5.80;74.10
27567;DHT22;15006;48.584;9.186;2023-03-19T00:07:27;5.80;74.10
27567;DHT22;15006;48.584;9.186;2023-03-19T00:09:55;5.90;74.40
27567;DHT22;15006;48.584;9.186;2023-03-19T00:12:23;5.90;74.40
27567;DHT22;15006;48.584;9.186;2023-03-19T00:14:50;5.90;74.20
27567;DHT22;15006;48.584;9.186;2023-03-19T00:17:16;5.90;73.90
27567;DHT22;15006;48.584;9.186;2023-03-19T00:19:43;5.90;73.80
27567;DHT22;15006;48.584;9.186;2023-03-19T00:22:12;5.90;73.80
27567;DHT22;15006;48.584;9.186;2023-03-19T00:24:40;5.90;73.80
27567;DHT22;15006;48.584;9.186;2023-03-19T00:27:06;5.90;73.70
27567;DHT22;15006;48.584;9.186;2023-03-19T00:29:34;5.90;73.60
27567;DHT22;15006;48.584;9.186;2023-03-19T00:32:02;5.90;73.40
27567;DHT22;15006;48.584;9.186;2023-03-19T00:34:30;5.90;73.30
27567;DHT22;15006;48.584;9.186;2023-03-19T00:36:58;5.90;73.20
27567;DHT22;15006;48.584;9.186;2023-03-19T00:39:27;5.90;73.10
27567;DHT22;15006;48.584;9.186;2023-03-19T00:41:55;5.90;73.10
27567;DHT22;15006;48.584;9.186;2023-03-19T00:44:23;5.90;73.30
27567;DHT22;15006;48.584;9.186;2023-03-19T00:46:51;6.00;73.80
27567;DHT22;15006;48.584;9.186;2023-03-19T00:49:20;6.00;73.90
27567;DHT22;15006;48.584;9.186;2023-03-19T00:51:47;6.00;73.70
27567;DHT22;15006;48.584;9.186;2023-03-19T00:54:14;6.10;73.50
27567;DHT22;15006;48.584;9.186;2023-03-19T00:56:42;6.10;73.30
27567;DHT22;15006;48.584;9.186;2023-03-19T00:59:10;6.00;73.90
27567;DHT22;15006;48.584;9.186;2023-03-19T01:01:39;6.10;73.00
27567;DHT22;15006;48.584;9.186;2023-03-19T01:04:07;6.10;72.90
27567;DHT22;15006;48.584;9.186;2023-03-19T01:06:35;6.10;72.80
27567;DHT22;15006;48.584;9.186;2023-03-19T01:09:02;6.10;72.40
27567;DHT22;15006;48.584;9.186;2023-03-19T01:11:28;6.20;72.50
27567;DHT22;15006;48.584;9.186;2023-03-19T01:13:54;6.20;72.50
27567;DHT22;15006;48.584;9.186;2023-03-19T01:16:20;6.20;72.60
27567;DHT22;15006;48.584;9.186;2023-03-19T01:18:46;6.20;72.80
27567;DHT22;15006;48.584;9.186;2023-03-19T01:21:12;6.20;72.50
27567;DHT22;15006;48.584;9.186;2023-03-19T01:23:39;6.20;72.40
27567;DHT22;15006;48.584;9.186;2023-03-19T01:26:05;6.20;72.60
27567;DHT22;15006;48.584;9.186;2023-03-19T01:28:31;6.30;72.30
27567;DHT22;15006;48.584;9.186;2023-03-19T01:30:59;6.30;71.70
27567;DHT22;15006;48.584;9.186;2023-03-19T01:33:26;6.30;71.50
27567;DHT22;15006;48.584;9.186;2023-03-19T01:35:52;6.30;71.00
27567;DHT22;15006;48.584;9.186;2023-03-19T01:38:18;6.40;70.40
27567;DHT22;15006;48.584;9.186;2023-03-19T01:40:45;6.50;70.10
27567;DHT22;15006;48.584;9.186;2023-03-19T01:43:21;6.50;70.00
27567;DHT22;15006;48.584;9.186;2023-03-19T01:45:51;6.60;70.30
27567;DHT22;15006;48.584;9.186;2023-03-19T01:48:39;6.70;69.50
27567;DHT22;15006;48.584;9.186;2023-03-19T01:51:10;6.80;69.20
27567;DHT22;15006;48.584;9.186;2023-03-19T01:53:40;6.90;69.60
27567;DHT22;15006;48.584;9.186;2023-03-19T01:56:18;6.90;69.70
27567;DHT22;15006;48.584;9.186;2023-03-19T01:58:48;6.90;70.20
27567;DHT22;15006;48.584;9.186;2023-03-19T02:01:16;7.00;70.70
27567;DHT22;15006;48.584;9.186;2023-03-19T02:03:44;7.10;71.10
27567;DHT22;15006;48.584;9.186;2023-03-19T02:06:13;7.10;71.70
27567;DHT22;15006;48.584;9.186;2023-03-19T02:08:41;7.20;71.90
27567;DHT22;15006;48.584;9.186;2023-03-19T02:11:09;7.20;71.80
27567;DHT22;15006;48.584;9.186;2023-03-19T02:13:35;7.30;72.00
27567;DHT22;15006;48.584;9.186;2023-03-19T02:16:01;7.30;72.20
27567;DHT22;15006;48.584;9.186;2023-03-19T02:18:28;7.40;72.50
27567;DHT22;15006;48.584;9.186;2023-03-19T02:21:06;7.40;72.60
27567;DHT22;15006;48.584;9.186;2023-03-19T02:23:52;7.40;73.40
27567;DHT22;15006;48.584;9.186;2023-03-19T02:26:39;7.50;73.80
27567;DHT22;15006;48.584;9.186;2023-03-19T02:29:07;7.50;73.30
27567;DHT22;15006;48.584;9.186;2023-03-19T02:31:33;7.50;73.80
27567;DHT22;15006;48.584;9.186;2023-03-19T02:34:31;7.50;74.40
27567;DHT22;15006;48.584;9.186;2023-03-19T02:37:03;7.50;75.00
27567;DHT22;15006;48.584;9.186;2023-03-19T02:39:53;7.60;75.80
27567;DHT22;15006;48.584;9.186;2023-03-19T02:42:22;7.50;76.00
27567;DHT22;15006;48.584;9.186;2023-03-19T02:44:49;7.60;76.70
27567;DHT22;15006;48.584;9.186;2023-03-19T02:47:15;7.50;75.90
27567;DHT22;15006;48.584;9.186;2023-03-19T02:49:41;7.40;75.90
27567;DHT22;15006;48.584;9.186;2023-03-19T02:52:08;7.30;75.90
27567;DHT22;15006;48.584;9.186;2023-03-19T02:54:34;7.20;76.70
27567;DHT22;15006;48.584;9.186;2023-03-19T02:57:00;7.00;76.60
27567;DHT22;15006;48.584;9.186;2023-03-19T02:59:26;7.00;76.70
27567;DHT22;15006;48.584;9.186;2023-03-19T03:01:52;6.90;77.30
27567;DHT22;15006;48.584;9.186;2023-03-19T03:04:18;6.70;78.10
27567;DHT22;15006;48.584;9.186;2023-03-19T03:06:43;6.70;78.70
27567;DHT22;15006;48.584;9.186;2023-03-19T03:09:11;6.50;78.90
27567;DHT22;15006;48.584;9.186;2023-03-19T03:11:37;6.50;79.40
27567;DHT22;15006;48.584;9.186;2023-03-19T03:14:03;6.40;79.90
27567;DHT22;15006;48.584;9.186;2023-03-19T03:16:29;6.40;80.50
27567;DHT22;15006;48.584;9.186;2023-03-19T03:18:55;6.30;80.90
27567;DHT22;15006;48.584;9.186;2023-03-19T03:21:21;6.30;81.20
27567;DHT22;15006;48.584;9.186;2023-03-19T03:23:47;6.30;81.60
27567;DHT22;15006;48.584;9.186;2023-03-19T03:26:13;6.20;82.30
27567;DHT22;15006;48.584;9.186;2023-03-19T03:28:39;6.10;82.50
27567;DHT22;15006;48.584;9.186;2023-03-19T03:31:06;6.10;82.80
27567;DHT22;15006;48.584;9.186;2023-03-19T03:33:32;6.10;83.10
27567;DHT22;15006;48.584;9.186;2023-03-19T03:35:58;6.00;83.50
27567;DHT22;15006;48.584;9.186;2023-03-19T03:38:24;6.00;83.90
27567;DHT22;15006;48.584;9.186;2023-03-19T03:40:51;5.90;84.20
27567;DHT22;15006;48.584;9.186;2023-03-19T03:43:18;5.90;84.60
27567;DHT22;15006;48.584;9.186;2023-03-19T03:45:46;5.80;84.80
27567;DHT22;15006;48.584;9.186;2023-03-19T03:48:13;5.80;85.10
27567;DHT22;15006;48.584;9.186;2023-03-19T03:50:39;5.80;85.20
27567;DHT22;15006;48.584;9.186;2023-03-19T03:53:05;5.80;85.60
27567;DHT22;15006;48.584;9.186;2023-03-19T03:55:32;5.80;86.00
27567;DHT22;15006;48.584;9.186;2023-03-19T03:57:58;5.80;86.20
27567;DHT22;15006;48.584;9.186;2023-03-19T04:00:24;5.70;86.20
27567;DHT22;15006;48.584;9.186;2023-03-19T04:02:51;5.70;86.40
27567;DHT22;15006;48.584;9.186;2023-03-19T04:05:17;5.70;86.70
27567;DHT22;15006;48.584;9.186;2023-03-19T04:07:43;5.70;86.90
27567;DHT22;15006;48.584;9.186;2023-03-19T04:10:10;5.70;87.30
27567;DHT22;15006;48.584;9.186;2023-03-19T04:12:37;5.70;88.00
27567;DHT22;15006;48.584;9.186;2023-03-19T04:15:06;5.70;88.30
27567;DHT22;15006;48.584;9.186;2023-03-19T04:17:34;5.60;88.80
27567;DHT22;15006;48.584;9.186;2023-03-19T04:20:03;5.70;89.20
27567;DHT22;15006;48.584;9.186;2023-03-19T04:22:30;5.60;89.70
27567;DHT22;15006;48.584;9.186;2023-03-19T04:24:56;5.70;90.00
27567;DHT22;15006;48.584;9.186;2023-03-19T04:27:23;5.70;90.10
27567;DHT22;15006;48.584;9.186;2023-03-19T04:29:49;5.60;90.30
27567;DHT22;15006;48.584;9.186;2023-03-19T04:32:15;5.70;90.40
27567;DHT22;15006;48.584;9.186;2023-03-19T04:34:41;5.70;90.60
27567;DHT22;15006;48.584;9.186;2023-03-19T04:37:07;5.70;90.70
27567;DHT22;15006;48.584;9.186;2023-03-19T04:39:35;5.70;90.80
27567;DHT22;15006;48.584;9.186;2023-03-19T04:42:01;5.70;90.90
27567;DHT22;15006;48.584;9.186;2023-03-19T04:44:28;5.80;90.90
27567;DHT22;15006;48.584;9.186;2023-03-19T04:46:55;5.80;91.00
27567;DHT22;15006;48.584;9.186;2023-03-19T04:49:22;5.80;91.10
27567;DHT22;15006;48.584;9.186;2023-03-19T04:51:49;5.80;91.30
27567;DHT22;15006;48.584;9.186;2023-03-19T04:54:16;5.80;91.30
27567;DHT22;15006;48.584;9.186;2023-03-19T04:56:42;5.90;91.40
27567;DHT22;15006;48.584;9.186;2023-03-19T04:59:08;5.90;91.40
27567;DHT22;15006;48.584;9.186;2023-03-19T05:01:35;5.90;91.50
27567;DHT22;15006;48.584;9.186;2023-03-19T05:04:02;5.90;91.60
27567;DHT22;15006;48.584;9.186;2023-03-19T05:06:28;5.90;91.60
27567;DHT22;15006;48.584;9.186;2023-03-19T05:08:55;5.90;91.60
27567;DHT22;15006;48.584;9.186;2023-03-19T05:11:21;5.90;91.60
27567;DHT22;15006;48.584;9.186;2023-03-19T05:13:47;6.00;91.70
27567;DHT22;15006;48.584;9.186;2023-03-19T05:16:13;5.90;91.70
27567;DHT22;15006;48.584;9.186;2023-03-19T05:18:39;6.00;91.80
27567;DHT22;15006;48.584;9.186;2023-03-19T05:21:11;6.00;91.90
27567;DHT22;15006;48.584;9.186;2023-03-19T05:23:38;6.00;92.10
27567;DHT22;15006;48.584;9.186;2023-03-19T05:26:04;6.00;92.20
27567;DHT22;15006;48.584;9.186;2023-03-19T05:28:31;6.00;92.30
27567;DHT22;15006;48.584;9.186;2023-03-19T05:30:58;6.00;92.30
27567;DHT22;15006;48.584;9.186;2023-03-19T05:33:24;6.10;92.40
27567;DHT22;15006;48.584;9.186;2023-03-19T05:35:51;6.10;92.50
27567;DHT22;15006;48.584;9.186;2023-03-19T05:38:18;6.10;92.60
27567;DHT22;15006;48.584;9.186;2023-03-19T05:40:44;6.10;92.70
27567;DHT22;15006;48.584;9.186;2023-03-19T05:43:10;6.10;92.80
27567;DHT22;15006;48.584;9.186;2023-03-19T05:45:37;6.10;92.90
27567;DHT22;15006;48.584;9.186;2023-03-19T05:48:04;6.10;92.90
27567;DHT22;15006;48.584;9.186;2023-03-19T05:50:31;6.10;93.00
27567;DHT22;15006;48.584;9.186;2023-03-19T05:52:58;6.10;93.10
27567;DHT22;15006;48.584;9.186;2023-03-19T05:55:24;6.10;93.20
27567;DHT22;15006;48.584;9.186;2023-03-19T05:57:50;6.10;93.20
27567;DHT22;15006;48.584;9.186;2023-03-19T06:00:17;6.10;93.30
27567;DHT22;15006;48.584;9.186;2023-03-19T06:02:43;6.10;93.50
27567;DHT22;15006;48.584;9.186;2023-03-19T06:05:10;6.10;93.60
27567;DHT22;15006;48.584;9.186;2023-03-19T06:07:36;6.10;93.60
27567;DHT22;15006;48.584;9.186;2023-03-19T06:10:03;6.10;93.70
27567;DHT22;15006;48.584;9.186;2023-03-19T06:12:29;6.10;93.70
27567;DHT22;15006;48.584;9.186;2023-03-19T06:14:55;6.10;93.60
27567;DHT22;15006;48.584;9.186;2023-03-19T06:17:21;6.20;93.70
27567;DHT22;15006;48.584;9.186;2023-03-19T06:19:47;6.20;93.90
27567;DHT22;15006;48.584;9.186;2023-03-19T06:22:13;6.20;94.00
27567;DHT22;15006;48.584;9.186;2023-03-19T06:24:39;6.30;94.10
27567;DHT22;15006;48.584;9.186;2023-03-19T06:27:05;6.30;94.10
27567;DHT22;15006;48.584;9.186;2023-03-19T06:29:31;6.30;94.00
27567;DHT22;15006;48.584;9.186;2023-03-19T06:31:57;6.30;93.60
27567;DHT22;15006;48.584;9.186;2023-03-19T06:34:24;6.30;93.30
27567;DHT22;15006;48.584;9.186;2023-03-19T06:36:50;6.30;93.30
27567;DHT22;15006;48.584;9.186;2023-03-19T06:39:18;6.30;93.50
27567;DHT22;15006;48.584;9.186;2023-03-19T06:41:44;6.40;93.90
27567;DHT22;15006;48.584;9.186;2023-03-19T06:44:11;6.40;93.90
27567;DHT22;15006;48.584;9.186;2023-03-19T06:46:38;6.50;94.00
27567;DHT22;15006;48.584;9.186;2023-03-19T06:49:04;6.50;94.20
27567;DHT22;15006;48.584;9.186;2023-03-19T06:51:30;6.60;94.30
27567;DHT22;15006;48.584;9.186;2023-03-19T06:53:57;6.70;94.00
27567;DHT22;15006;48.584;9.186;2023-03-19T06:56:23;6.70;93.60
27567;DHT22;15006;48.584;9.186;2023-03-19T06:58:49;6.80;93.30
27567;DHT22;15006;48.584;9.186;2023-03-19T07:01:15;6.90;93.20
27567;DHT22;15006;48.584;9.186;2023-03-19T07:03:41;6.90;93.20
27567;DHT22;15006;48.584;9.186;2023-03-19T07:06:07;7.00;93.20
27567;DHT22;15006;48.584;9.186;2023-03-19T07:08:33;7.10;93.40
27567;DHT22;15006;48.584;9.186;2023-03-19T07:11:04;7.20;93.50
27567;DHT22;15006;48.584;9.186;2023-03-19T07:13:30;7.30;93.20
27567;DHT22;15006;48.584;9.186;2023-03-19T07:15:58;7.30;93.10
27567;DHT22;15006;48.584;9.186;2023-03-19T07:18:24;7.40;93.20
27567;DHT22;15006;48.584;9.186;2023-03-19T07:20:50;7.50;93.30
27567;DHT22;15006;48.584;9.186;2023-03-19T07:23:18;7.60;93.30
27567;DHT22;15006;48.584;9.186;2023-03-19T07:25:44;7.60;93.20
27567;DHT22;15006;48.584;9.186;2023-03-19T07:28:12;7.70;93.00
27567;DHT22;15006;48.584;9.186;2023-03-19T07:30:38;7.80;92.70
27567;DHT22;15006;48.584;9.186;2023-03-19T07:33:05;7.90;92.40
27567;DHT22;15006;48.584;9.186;2023-03-19T07:35:33;7.90;92.10
27567;DHT22;15006;48.584;9.186;2023-03-19T07:37:59;8.00;92.00
27567;DHT22;15006;48.584;9.186;2023-03-19T07:40:25;8.10;92.00
27567;DHT22;15006;48.584;9.186;2023-03-19T07:42:51;8.20;91.90
27567;DHT22;15006;48.584;9.186;2023-03-19T07:45:18;8.30;91.50
27567;DHT22;15006;48.584;9.186;2023-03-19T07:47:44;8.30;91.40
27567;DHT22;15006;48.584;9.186;2023-03-19T07:50:10;8.40;90.90
27567;DHT22;15006;48.584;9.186;2023-03-19T07:52:36;8.50;90.50
27567;DHT22;15006;48.584;9.186;2023-03-19T07:55:02;8.50;90.20
27567;DHT22;15006;48.584;9.186;2023-03-19T07:57:29;8.60;89.60
27567;DHT22;15006;48.584;9.186;2023-03-19T07:59:55;8.60;89.10
27567;DHT22;15006;48.584;9.186;2023-03-19T08:02:21;8.70;89.00
27567;DHT22;15006;48.584;9.186;2023-03-19T08:04:46;8.80;88.90
27567;DHT22;15006;48.584;9.186;2023-03-19T08:07:12;8.80;88.90
27567;DHT22;15006;48.584;9.186;2023-03-19T08:09:39;8.90;89.00
27567;DHT22;15006;48.584;9.186;2023-03-19T08:12:05;9.00;88.60
27567;DHT22;15006;48.584;9.186;2023-03-19T08:14:33;9.10;87.40
27567;DHT22;15006;48.584;9.186;2023-03-19T08:16:59;9.20;86.60
27567;DHT22;15006;48.584;9.186;2023-03-19T08:19:25;9.20;86.20
27567;DHT22;15006;48.584;9.186;2023-03-19T08:21:51;9.30;85.70
27567;DHT22;15006;48.584;9.186;2023-03-19T08:24:17;9.30;85.60
27567;DHT22;15006;48.584;9.186;2023-03-19T08:26:44;9.40;85.10
27567;DHT22;15006;48.584;9.186;2023-03-19T08:29:10;9.50;84.50
27567;DHT22;15006;48.584;9.186;2023-03-19T08:31:36;9.50;84.50
27567;DHT22;15006;48.584;9.186;2023-03-19T08:34:03;9.60;85.10
27567;DHT22;15006;48.584;9.186;2023-03-19T08:36:30;9.70;84.30
27567;DHT22;15006;48.584;9.186;2023-03-19T08:38:57;9.80;83.30
27567;DHT22;15006;48.584;9.186;2023-03-19T08:41:23;9.90;82.70
27567;DHT22;15006;48.584;9.186;2023-03-19T08:43:50;10.00;81.30
27567;DHT22;15006;48.584;9.186;2023-03-19T08:46:16;10.00;79.70
27567;DHT22;15006;48.584;9.186;2023-03-19T08:48:43;10.10;79.60
27567;DHT22;15006;48.584;9.186;2023-03-19T08:51:09;10.10;79.20
27567;DHT22;15006;48.584;9.186;2023-03-19T08:53:36;10.20;80.40
27567;DHT22;15006;48.584;9.186;2023-03-19T08:56:04;10.30;80.70
27567;DHT22;15006;48.584;9.186;2023-03-19T08:58:32;10.30;80.60
27567;DHT22;15006;48.584;9.186;2023-03-19T09:01:04;10.40;80.20
27567;DHT22;15006;48.584;9.186;2023-03-19T09:03:32;10.50;79.90
27567;DHT22;15006;48.584;9.186;2023-03-19T09:05:59;10.60;80.30
27567;DHT22;15006;48.584;9.186;2023-03-19T09:08:28;10.70;80.20
27567;DHT22;15006;48.584;9.186;2023-03-19T09:10:55;10.80;79.50
27567;DHT22;15006;48.584;9.186;2023-03-19T09:13:22;10.90;79.50
27567;DHT22;15006;48.584;9.186;2023-03-19T09:15:49;11.00;79.70
27567;DHT22;15006;48.584;9.186;2023-03-19T09:18:17;11.10;77.40
27567;DHT22;15006;48.584;9.186;2023-03-19T09:20:46;11.20;76.40
27567;DHT22;15006;48.584;9.186;2023-03-19T09:23:12;11.30;75.50
27567;DHT22;15006;48.584;9.186;2023-03-19T09:25:38;11.40;77.00
27567;DHT22;15006;48.584;9.186;2023-03-19T09:28:04;11.50;76.00
27567;DHT22;15006;48.584;9.186;2023-03-19T09:30:31;11.70;75.10
27567;DHT22;15006;48.584;9.186;2023-03-19T09:32:57;11.80;71.70
27567;DHT22;15006;48.584;9.186;2023-03-19T09:35:23;11.90;70.80
27567;DHT22;15006;48.584;9.186;2023-03-19T09:37:56;12.00;70.30
27567;DHT22;15006;48.584;9.186;2023-03-19T09:40:27;12.10;68.50
27567;DHT22;15006;48.584;9.186;2023-03-19T09:43:04;12.20;68.60
27567;DHT22;15006;48.584;9.186;2023-03-19T09:45:32;12.30;67.50
27567;DHT22;15006;48.584;9.186;2023-03-19T09:48:02;12.50;66.80
27567;DHT22;15006;48.584;9.186;2023-03-19T09:50:32;12.60;66.60
27567;DHT22;15006;48.584;9.186;2023-03-19T09:53:05;12.70;65.00
27567;DHT22;15006;48.584;9.186;2023-03-19T09:55:47;12.80;63.10
27567;DHT22;15006;48.584;9.186;2023-03-19T09:58:19;12.90;61.60
27567;DHT22;15006;48.584;9.186;2023-03-19T10:00:49;13.00;61.40
27567;DHT22;15006;48.584;9.186;2023-03-19T10:06:34;13.40;61.00
27567;DHT22;15006;48.584;9.186;2023-03-19T10:12:40;13.70;58.40
27567;DHT22;15006;48.584;9.186;2023-03-19T10:17:55;13.80;58.20
27567;DHT22;15006;48.584;9.186;2023-03-19T10:20:46;14.00;58.00
27567;DHT22;15006;48.584;9.186;2023-03-19T10:23:36;14.10;53.50
27567;DHT22;15006;48.584;9.186;2023-03-19T10:26:13;14.20;55.40
27567;DHT22;15006;48.584;9.186;2023-03-19T10:28:43;14.30;55.10
27567;DHT22;15006;48.584;9.186;2023-03-19T10:31:29;14.40;54.80
27567;DHT22;15006;48.584;9.186;2023-03-19T10:37:03;14.70;54.00
27567;DHT22;15006;48.584;9.186;2023-03-19T10:39:41;14.90;55.10
27567;DHT22;15006;48.584;9.186;2023-03-19T10:47:42;15.20;53.20
27567;DHT22;15006;48.584;9.186;2023-03-19T10:50:17;15.20;54.50
27567;DHT22;15006;48.584;9.186;2023-03-19T10:52:50;15.20;53.20
27567;DHT22;15006;48.584;9.186;2023-03-19T10:55:29;15.20;53.20
27567;DHT22;15006;48.584;9.186;2023-03-19T10:58:02;15.30;53.40
27567;DHT22;15006;48.584;9.186;2023-03-19T11:00:31;15.40;52.60
27567;DHT22;15006;48.584;9.186;2023-03-19T11:03:00;15.50;52.90
27567;DHT22;15006;48.584;9.186;2023-03-19T11:05:33;15.60;52.90
27567;DHT22;15006;48.584;9.186;2023-03-19T11:08:04;15.80;51.80
27567;DHT22;15006;48.584;9.186;2023-03-19T11:10:34;15.90;51.80
27567;DHT22;15006;48.584;9.186;2023-03-19T11:13:24;16.00;50.30
27567;DHT22;15006;48.584;9.186;2023-03-19T11:15:58;16.00;49.70
27567;DHT22;15006;48.584;9.186;2023-03-19T11:18:34;16.00;48.70
27567;DHT22;15006;48.584;9.186;2023-03-19T11:21:28;16.10;50.20
27567;DHT22;15006;48.584;9.186;2023-03-19T11:23:59;16.10;48.40
27567;DHT22;15006;48.584;9.186;2023-03-19T11:26:28;16.10;48.50
27567;DHT22;15006;48.584;9.186;2023-03-19T11:29:01;16.10;48.30
27567;DHT22;15006;48.584;9.186;2023-03-19T11:31:53;16.10;48.40
27567;DHT22;15006;48.584;9.186;2023-03-19T11:37:52;16.10;47.90
27567;DHT22;15006;48.584;9.186;2023-03-19T11:40:46;16.10;47.70
27567;DHT22;15006;48.584;9.186;2023-03-19T11:43:24;16.10;48.70
27567;DHT22;15006;48.584;9.186;2023-03-19T11:46:42;16.20;47.80
27567;DHT22;15006;48.584;9.186;2023-03-19T11:55:32;16.30;47.80
27567;DHT22;15006;48.584;9.186;2023-03-19T12:01:09;16.50;47.20
27567;DHT22;15006;48.584;9.186;2023-03-19T12:07:05;16.70;47.20
27567;DHT22;15006;48.584;9.186;2023-03-19T12:35:40;15.90;47.30
27567;DHT22;15006;48.584;9.186;2023-03-19T12:38:12;16.00;48.00
27567;DHT22;15006;48.584;9.186;2023-03-19T12:40:59;16.00;47.90
27567;DHT22;15006;48.584;9.186;2023-03-19T12:46:29;15.90;46.30
27567;DHT22;15006;48.584;9.186;2023-03-19T12:49:18;15.80;46.60
27567;DHT22;15006;48.584;9.186;2023-03-19T12:51:52;15.60;47.40
27567;DHT22;15006;48.584;9.186;2023-03-19T12:54:27;15.40;47.20
27567;DHT22;15006;48.584;9.186;2023-03-19T12:57:00;15.30;47.50
27567;DHT22;15006;48.584;9.186;2023-03-19T12:59:36;15.20;48.50
27567;DHT22;15006;48.584;9.186;2023-03-19T13:02:23;15.10;48.70
27567;DHT22;15006;48.584;9.186;2023-03-19T13:05:15;15.00;48.20
27567;DHT22;15006;48.584;9.186;2023-03-19T13:10:46;14.90;48.90
27567;DHT22;15006;48.584;9.186;2023-03-19T13:16:47;14.90;50.70
27567;DHT22;15006;48.584;9.186;2023-03-19T13:19:01;14.90;50.20
27567;DHT22;15006;48.584;9.186;2023-03-19T13:21:51;15.00;49.70
27567;DHT22;15006;48.584;9.186;2023-03-19T13:24:37;14.90;48.90
27567;DHT22;15006;48.584;9.186;2023-03-19T13:27:08;14.70;49.70
27567;DHT22;15006;48.584;9.186;2023-03-19T13:29:57;14.60;49.30
27567;DHT22;15006;48.584;9.186;2023-03-19T13:32:41;14.60;50.20
27567;DHT22;15006;48.584;9.186;2023-03-19T13:35:36;14.40;49.50
27567;DHT22;15006;48.584;9.186;2023-03-19T13:38:24;14.30;50.50
27567;DHT22;15006;48.584;9.186;2023-03-19T13:40:54;14.20;50.80
27567;DHT22;15006;48.584;9.186;2023-03-19T13:48:52;14.30;50.80
27567;DHT22;15006;48.584;9.186;2023-03-19T13:54:16;14.30;50.80
27567;DHT22;15006;48.584;9.186;2023-03-19T13:57:03;14.30;50.10
27567;DHT22;15006;48.584;9.186;2023-03-19T13:59:33;14.30;51.00
27567;DHT22;15006;48.584;9.186;2023-03-19T14:05:00;14.10;51.10
27567;DHT22;15006;48.584;9.186;2023-03-19T14:07:29;14.00;50.50
27567;DHT22;15006;48.584;9.186;2023-03-19T14:10:06;13.90;51.20
27567;DHT22;15006;48.584;9.186;2023-03-19T14:12:51;13.80;50.80
27567;DHT22;15006;48.584;9.186;2023-03-19T14:15:27;13.70;51.10
27567;DHT22;15006;48.584;9.186;2023-03-19T14:18:03;13.60;51.50
27567;DHT22;15006;48.584;9.186;2023-03-19T14:23:27;13.30;52.10
27567;DHT22;15006;48.584;9.186;2023-03-19T14:26:04;13.20;52.70
27567;DHT22;15006;48.584;9.186;2023-03-19T14:31:58;12.80;54.80
27567;DHT22;15006;48.584;9.186;2023-03-19T14:34:38;12.30;57.70
27567;DHT22;15006;48.584;9.186;2023-03-19T14:37:25;11.90;58.00
27567;DHT22;15006;48.584;9.186;2023-03-19T14:40:11;11.50;61.40
27567;DHT22;15006;48.584;9.186;2023-03-19T14:43:10;11.30;62.40
27567;DHT22;15006;48.584;9.186;2023-03-19T14:46:03;11.20;66.60
27567;DHT22;15006;48.584;9.186;2023-03-19T14:48:57;11.20;66.70
27567;DHT22;15006;48.584;9.186;2023-03-19T14:52:02;11.20;66.90
27567;DHT22;15006;48.584;9.186;2023-03-19T14:54:57;11.30;69.10
27567;DHT22;15006;48.584;9.186;2023-03-19T14:57:27;11.30;69.00
27567;DHT22;15006;48.584;9.186;2023-03-19T14:59:55;11.40;69.20
27567;DHT22;15006;48.584;9.186;2023-03-19T15:02:35;11.40;67.30
27567;DHT22;15006;48.584;9.186;2023-03-19T15:05:20;11.40;66.90
27567;DHT22;15006;48.584;9.186;2023-03-19T15:07:53;11.30;66.60
27567;DHT22;15006;48.584;9.186;2023-03-19T15:10:23;11.30;67.50
27567;DHT22;15006;48.584;9.186;2023-03-19T15:16:08;11.10;67.40
27567;DHT22;15006;48.584;9.186;2023-03-19T15:18:41;11.00;67.00
27567;DHT22;15006;48.584;9.186;2023-03-19T15:21:08;11.00;66.10
27567;DHT22;15006;48.584;9.186;2023-03-19T15:23:35;10.90;66.80
27567;DHT22;15006;48.584;9.186;2023-03-19T15:26:03;10.80;67.50
27567;DHT22;15006;48.584;9.186;2023-03-19T15:28:48;10.70;68.20
27567;DHT22;15006;48.584;9.186;2023-03-19T15:31:16;10.60;68.80
27567;DHT22;15006;48.584;9.186;2023-03-19T15:33:43;10.60;69.00
27567;DHT22;15006;48.584;9.186;2023-03-19T15:36:26;10.60;69.80
27567;DHT22;15006;48.584;9.186;2023-03-19T15:39:02;10.60;70.10
27567;DHT22;15006;48.584;9.186;2023-03-19T15:41:31;10.60;70.50
27567;DHT22;15006;48.584;9.186;2023-03-19T15:44:03;10.60;70.60
27567;DHT22;15006;48.584;9.186;2023-03-19T15:46:33;10.70;70.70
27567;DHT22;15006;48.584;9.186;2023-03-19T15:49:20;10.70;70.10
27567;DHT22;15006;48.584;9.186;2023-03-19T15:51:49;10.70;70.30
27567;DHT22;15006;48.584;9.186;2023-03-19T15:54:19;10.70;70.30
27567;DHT22;15006;48.584;9.186;2023-03-19T15:56:48;10.70;69.70
27567;DHT22;15006;48.584;9.186;2023-03-19T15:59:17;10.60;70.30
27567;DHT22;15006;48.584;9.186;2023-03-19T16:01:45;10.60;70.40
27567;DHT22;15006;48.584;9.186;2023-03-19T16:04:16;10.60;70.80
27567;DHT22;15006;48.584;9.186;2023-03-19T16:06:48;10.60;71.30
27567;DHT22;15006;48.584;9.186;2023-03-19T16:09:21;10.70;73.10
27567;DHT22;15006;48.584;9.186;2023-03-19T16:11:54;11.00;74.70
27567;DHT22;15006;48.584;9.186;2023-03-19T16:14:25;11.30;75.60
27567;DHT22;15006;48.584;9.186;2023-03-19T16:17:09;11.70;74.90
27567;DHT22;15006;48.584;9.186;2023-03-19T16:22:20;12.40;69.70
27567;DHT22;15006;48.584;9.186;2023-03-19T16:24:49;12.60;68.80
27567;DHT22;15006;48.584;9.186;2023-03-19T16:27:19;12.70;68.70
27567;DHT22;15006;48.584;9.186;2023-03-19T16:29:54;12.80;66.00
27567;DHT22;15006;48.584;9.186;2023-03-19T16:32:27;12.70;65.10
27567;DHT22;15006;48.584;9.186;2023-03-19T16:35:16;12.70;65.20
27567;DHT22;15006;48.584;9.186;2023-03-19T16:37:47;12.60;63.00
27567;DHT22;15006;48.584;9.186;2023-03-19T16:42:46;12.40;64.00
27567;DHT22;15006;48.584;9.186;2023-03-19T16:47:43;12.30;64.20
27567;DHT22;15006;48.584;9.186;2023-03-19T16:50:25;12.20;64.50
27567;DHT22;15006;48.584;9.186;2023-03-19T16:53:02;12.10;65.00
27567;DHT22;15006;48.584;9.186;2023-03-19T16:55:34;12.00;65.60
27567;DHT22;15006;48.584;9.186;2023-03-19T16:58:14;11.90;66.20
27567;DHT22;15006;48.584;9.186;2023-03-19T17:00:44;11.80;67.50
27567;DHT22;15006;48.584;9.186;2023-03-19T17:03:13;11.70;67.10
27567;DHT22;15006;48.584;9.186;2023-03-19T17:05:42;11.60;67.10
27567;DHT22;15006;48.584;9.186;2023-03-19T17:08:09;11.50;67.10
27567;DHT22;15006;48.584;9.186;2023-03-19T17:10:38;11.40;66.70
27567;DHT22;15006;48.584;9.186;2023-03-19T17:13:20;11.30;66.90
27567;DHT22;15006;48.584;9.186;2023-03-19T17:15:50;11.20;66.90
27567;DHT22;15006;48.584;9.186;2023-03-19T17:18:25;11.10;67.40
27567;DHT22;15006;48.584;9.186;2023-03-19T17:21:17;11.00;67.70
27567;DHT22;15006;48.584;9.186;2023-03-19T17:23:55;10.90;67.90
27567;DHT22;15006;48.584;9.186;2023-03-19T17:26:24;10.80;67.60
27567;DHT22;15006;48.584;9.186;2023-03-19T17:28:52;10.70;68.00
27567;DHT22;15006;48.584;9.186;2023-03-19T17:31:30;10.60;68.30
27567;DHT22;15006;48.584;9.186;2023-03-19T17:34:02;10.50;68.90
27567;DHT22;15006;48.584;9.186;2023-03-19T17:36:29;10.40;69.10
27567;DHT22;15006;48.584;9.186;2023-03-19T17:38:55;10.40;68.70
27567;DHT22;15006;48.584;9.186;2023-03-19T17:41:22;10.30;69.00